createdAt,value
2018-11-03T00:00:05.321Z,93.17
2018-11-03T00:00:44.960Z,76.37
2018-11-03T00:01:19.489Z,115.32
2018-11-03T00:01:54.461Z,90.32
2018-11-03T00:02:29.261Z,101.87
2018-11-03T00:03:04.264Z,92.92
2018-11-03T00:03:38.940Z,90.90
2018-11-03T00:04:13.660Z,107.47
2018-11-03T00:04:48.480Z,144.50
2018-11-03T00:05:23.260Z,140.22
2018-11-03T00:05:58.181Z,116.70
2018-11-03T00:06:32.900Z,119.60
2018-11-03T00:07:07.601Z,113.80
2018-11-03T00:07:42.421Z,102.22
2018-11-03T00:08:17.009Z,105.20
2018-11-03T00:08:51.861Z,114.32
2018-11-03T00:09:26.601Z,111.42
2018-11-03T00:10:01.501Z,101.40
2018-11-03T00:10:36.401Z,93.78
2018-11-03T00:11:10.960Z,92.05
2018-11-03T00:11:45.561Z,88.50
2018-11-03T00:12:20.161Z,104.30
2018-11-03T00:12:54.801Z,129.57
2018-11-03T00:13:29.481Z,124.97
2018-11-03T00:14:04.227Z,99.37
2018-11-03T00:14:38.921Z,122.25
2018-11-03T00:15:13.543Z,114.50
2018-11-03T00:15:48.201Z,118.40
2018-11-03T00:16:22.821Z,96.72
2018-11-03T00:16:57.401Z,91.57
2018-11-03T00:17:32.181Z,110.85
2018-11-03T00:18:07.201Z,104.10
2018-11-03T00:18:41.922Z,124.87
2018-11-03T00:19:16.580Z,114.92
2018-11-03T00:19:51.241Z,121.17
2018-11-03T00:20:25.941Z,137.65
2018-11-03T00:21:00.541Z,131.70
2018-11-03T00:21:35.101Z,125.35
2018-11-03T00:22:09.781Z,130.78
2018-11-03T00:22:44.401Z,121.00
2018-11-03T00:23:19.100Z,115.77
2018-11-03T00:23:53.808Z,116.57
2018-11-03T00:24:28.445Z,118.93
2018-11-03T00:25:03.041Z,117.67
2018-11-03T00:25:37.961Z,104.00
2018-11-03T00:26:12.461Z,112.88
2018-11-03T00:26:47.140Z,109.95
2018-11-03T00:27:21.681Z,127.85
2018-11-03T00:27:56.201Z,146.05
2018-11-03T00:28:30.734Z,142.10
2018-11-03T00:29:05.721Z,190.97
2018-11-03T00:29:40.240Z,172.35
2018-11-03T00:30:14.841Z,199.77
2018-11-03T00:30:49.321Z,202.22
2018-11-03T00:31:23.981Z,193.47
2018-11-03T00:31:58.547Z,188.27
2018-11-03T00:32:33.181Z,186.07
2018-11-03T00:33:07.741Z,183.93
2018-11-03T00:33:42.461Z,169.95
2018-11-03T00:34:17.042Z,173.60
2018-11-03T00:34:51.761Z,179.63
2018-11-03T00:35:26.300Z,149.05
2018-11-03T00:36:00.902Z,170.35
2018-11-03T00:36:35.421Z,148.25
2018-11-03T00:37:10.081Z,157.18
2018-11-03T00:37:44.521Z,136.47
2018-11-03T00:38:19.258Z,139.80
2018-11-03T00:38:53.780Z,158.60
2018-11-03T00:39:28.643Z,137.62
2018-11-03T00:40:03.141Z,153.10
2018-11-03T00:40:37.886Z,171.05
2018-11-03T00:41:12.321Z,162.62
2018-11-03T00:41:46.965Z,174.95
2018-11-03T00:42:21.600Z,166.68
2018-11-03T00:42:56.289Z,156.87
2018-11-03T00:43:30.801Z,142.45
2018-11-03T00:44:05.541Z,145.85
2018-11-03T00:44:40.311Z,159.65
2018-11-03T00:45:15.161Z,159.72
2018-11-03T00:45:49.763Z,163.72
2018-11-03T00:46:24.282Z,141.90
2018-11-03T00:46:58.981Z,160.57
2018-11-03T00:47:33.420Z,144.43
2018-11-03T00:48:08.097Z,139.68
2018-11-03T00:48:42.921Z,151.75
2018-11-03T00:49:17.621Z,135.43
2018-11-03T00:49:52.261Z,117.15
2018-11-03T00:50:26.861Z,136.00
2018-11-03T00:51:01.421Z,142.50
2018-11-03T00:51:36.084Z,141.97
2018-11-03T00:52:10.641Z,137.50
2018-11-03T00:52:45.601Z,131.10
2018-11-03T00:53:20.201Z,137.82
2018-11-03T00:53:54.826Z,123.87
2018-11-03T00:54:29.401Z,141.62
2018-11-03T00:55:04.281Z,152.05
2018-11-03T00:55:38.841Z,151.60
2018-11-03T00:56:13.481Z,137.62
2018-11-03T00:56:47.941Z,160.18
2018-11-03T00:57:22.601Z,149.77
2018-11-03T00:57:57.141Z,158.37
2018-11-03T00:58:31.843Z,153.35
2018-11-03T00:59:06.422Z,176.47
2018-11-03T00:59:41.040Z,158.52
2018-11-03T01:00:17.064Z,160.63
2018-11-03T01:00:51.701Z,159.78
2018-11-03T01:01:26.241Z,159.07
2018-11-03T01:02:00.940Z,152.95
2018-11-03T01:02:35.581Z,220.22
2018-11-03T01:03:10.241Z,230.00
2018-11-03T01:03:44.761Z,217.43
2018-11-03T01:04:19.361Z,161.43
2018-11-03T01:04:54.001Z,235.78
2018-11-03T01:05:28.682Z,153.75
2018-11-03T01:06:03.181Z,217.00
2018-11-03T01:06:37.621Z,160.18
2018-11-03T01:07:12.344Z,174.65
2018-11-03T01:07:47.360Z,140.68
2018-11-03T01:08:21.920Z,153.40
2018-11-03T01:08:56.661Z,124.60
2018-11-03T01:09:31.209Z,151.68
2018-11-03T01:15:11.201Z,162.77
2018-11-03T01:15:45.763Z,163.57
2018-11-03T01:16:20.401Z,165.47
2018-11-03T01:16:54.961Z,171.57
2018-11-03T01:17:29.341Z,187.22
2018-11-03T01:18:03.921Z,158.22
2018-11-03T01:18:38.601Z,167.30
2018-11-03T01:19:13.302Z,177.25
2018-11-03T01:19:47.861Z,138.52
2018-11-03T01:20:22.503Z,171.18
2018-11-03T01:20:57.161Z,188.00
2018-11-03T01:21:31.681Z,181.02
2018-11-03T01:22:06.404Z,221.43
2018-11-03T01:22:47.444Z,176.15
2018-11-03T01:23:22.009Z,210.28
2018-11-03T01:23:56.781Z,209.20
2018-11-03T01:24:31.428Z,216.60
2018-11-03T01:25:06.201Z,214.53
2018-11-03T01:25:40.821Z,185.57
2018-11-03T01:26:15.561Z,235.55
2018-11-03T01:26:50.001Z,209.12
2018-11-03T01:27:24.664Z,221.95
2018-11-03T01:27:59.201Z,185.12
2018-11-03T01:28:33.861Z,213.80
2018-11-03T01:29:08.280Z,223.87
2018-11-03T01:29:43.001Z,226.12
2018-11-03T01:30:18.021Z,269.23
2018-11-03T01:30:52.501Z,204.47
2018-11-03T01:31:27.004Z,246.10
2018-11-03T01:32:01.621Z,197.22
2018-11-03T01:32:36.343Z,237.40
2018-11-03T01:33:10.961Z,165.43
2018-11-03T01:33:45.502Z,159.12
2018-11-03T01:34:20.161Z,175.72
2018-11-03T01:34:54.701Z,183.37
2018-11-03T01:35:29.421Z,210.15
2018-11-03T01:36:03.985Z,261.75
2018-11-03T01:36:38.641Z,195.75
2018-11-03T01:37:13.184Z,206.15
2018-11-03T01:37:47.843Z,202.85
2018-11-03T01:38:22.383Z,213.97
2018-11-03T01:38:57.060Z,207.60
2018-11-03T01:39:31.701Z,163.97
2018-11-03T01:40:06.442Z,212.20
2018-11-03T01:40:41.020Z,186.28
2018-11-03T01:41:15.780Z,181.60
2018-11-03T01:41:50.240Z,194.97
2018-11-03T01:42:24.941Z,205.75
2018-11-03T01:42:59.361Z,204.90
2018-11-03T01:43:34.000Z,271.48
2018-11-03T01:44:08.761Z,346.25
2018-11-03T01:44:43.380Z,372.07
2018-11-03T01:45:17.960Z,330.12
2018-11-03T01:45:52.601Z,228.45
2018-11-03T01:46:27.201Z,218.88
2018-11-03T01:47:01.701Z,237.93
2018-11-03T01:47:36.549Z,168.35
2018-11-03T01:48:11.381Z,260.27
2018-11-03T01:48:46.023Z,269.13
2018-11-03T01:49:20.701Z,141.35
2018-11-03T01:49:55.100Z,159.72
2018-11-03T01:50:29.737Z,180.93
2018-11-03T01:51:04.440Z,219.03
2018-11-03T01:51:39.201Z,188.37
2018-11-03T01:52:13.801Z,250.87
2018-11-03T01:52:48.461Z,262.90
2018-11-03T01:53:23.041Z,193.30
2018-11-03T01:53:57.740Z,163.92
2018-11-03T01:54:32.120Z,159.20
2018-11-03T01:55:06.901Z,135.32
2018-11-03T01:55:41.340Z,143.05
2018-11-03T01:56:16.041Z,146.82
2018-11-03T01:56:50.641Z,182.25
2018-11-03T01:57:25.281Z,210.55
2018-11-03T01:57:59.801Z,179.72
2018-11-03T01:58:34.461Z,173.30
2018-11-03T01:59:09.082Z,171.93
2018-11-03T01:59:43.684Z,176.57
2018-11-03T02:00:18.221Z,194.60
2018-11-03T02:00:52.901Z,203.05
2018-11-03T02:01:27.441Z,151.02
2018-11-03T02:02:02.122Z,173.40
2018-11-03T02:02:36.661Z,220.45
2018-11-03T02:03:11.361Z,220.48
2018-11-03T02:03:45.901Z,250.28
2018-11-03T02:04:20.601Z,229.55
2018-11-03T02:04:55.141Z,221.82
2018-11-03T02:05:29.801Z,264.72
2018-11-03T02:06:04.241Z,263.07
2018-11-03T02:06:38.961Z,219.80
2018-11-03T02:07:13.682Z,208.35
2018-11-03T02:07:48.205Z,218.27
2018-11-03T02:08:22.881Z,275.40
2018-11-03T02:08:57.509Z,186.45
2018-11-03T02:09:32.120Z,282.30
2018-11-03T02:10:07.681Z,242.22
2018-11-03T02:10:42.241Z,257.27
2018-11-03T02:11:16.842Z,157.05
2018-11-03T02:11:51.462Z,159.15
2018-11-03T02:12:26.065Z,158.22
2018-11-03T02:13:00.681Z,151.55
2018-11-03T02:13:35.202Z,149.40
2018-11-03T02:14:09.921Z,138.50
2018-11-03T02:14:44.442Z,194.07
2018-11-03T02:15:19.121Z,195.90
2018-11-03T02:15:53.681Z,240.25
2018-11-03T02:16:28.361Z,214.70
2018-11-03T02:17:02.901Z,205.35
2018-11-03T02:17:37.661Z,211.62
2018-11-03T02:18:12.101Z,191.70
2018-11-03T02:18:46.782Z,223.22
2018-11-03T02:19:21.221Z,203.07
2018-11-03T02:19:55.907Z,202.15
2018-11-03T02:20:30.561Z,220.65
2018-11-03T02:21:05.324Z,203.15
2018-11-03T02:21:39.861Z,235.70
2018-11-03T02:22:14.442Z,156.18
2018-11-03T02:22:49.061Z,197.80
2018-11-03T02:23:23.462Z,169.53
2018-11-03T02:23:58.381Z,204.90
2018-11-03T02:24:32.801Z,235.23
2018-11-03T02:25:07.621Z,164.00
2018-11-03T02:25:42.301Z,185.95
2018-11-03T02:26:16.841Z,123.60
2018-11-03T02:26:51.405Z,143.97
2018-11-03T02:27:26.089Z,126.18
2018-11-03T02:28:00.642Z,131.95
2018-11-03T02:28:35.161Z,144.95
2018-11-03T02:29:10.082Z,152.20
2018-11-03T02:29:44.721Z,148.97
2018-11-03T02:30:19.342Z,138.82
2018-11-03T02:30:54.022Z,172.13
2018-11-03T02:31:28.561Z,148.25
2018-11-03T02:32:03.264Z,119.17
2018-11-03T02:32:37.764Z,125.38
2018-11-03T02:33:12.312Z,136.68
2018-11-03T02:33:46.902Z,119.47
2018-11-03T02:34:21.728Z,196.22
2018-11-03T02:34:56.261Z,225.32
2018-11-03T02:35:30.961Z,139.40
2018-11-03T02:36:05.481Z,159.45
2018-11-03T02:36:40.141Z,146.93
2018-11-03T02:37:14.881Z,172.40
2018-11-03T02:37:49.561Z,274.82
2018-11-03T02:38:24.221Z,333.77
2018-11-03T02:38:58.921Z,294.20
2018-11-03T02:39:33.521Z,301.12
2018-11-03T02:40:09.881Z,255.62
2018-11-03T02:40:44.328Z,266.00
2018-11-03T02:41:18.982Z,219.70
2018-11-03T02:41:53.561Z,197.10
2018-11-03T02:42:28.201Z,140.57
2018-11-03T02:43:02.721Z,165.43
2018-11-03T02:43:37.341Z,193.28
2018-11-03T02:44:12.021Z,176.80
2018-11-03T02:44:46.720Z,188.10
2018-11-03T02:45:21.282Z,171.87
2018-11-03T02:45:55.981Z,168.02
2018-11-03T02:46:30.522Z,148.95
2018-11-03T02:47:05.100Z,205.67
2018-11-03T02:47:40.001Z,171.18
2018-11-03T02:48:14.549Z,188.37
2018-11-03T02:48:48.981Z,162.10
2018-11-03T02:49:23.641Z,199.10
2018-11-03T02:49:58.242Z,243.57
2018-11-03T02:50:32.883Z,278.70
2018-11-03T02:51:07.521Z,274.12
2018-11-03T02:51:42.181Z,211.30
2018-11-03T02:52:16.845Z,182.50
2018-11-03T02:52:51.441Z,234.45
2018-11-03T02:53:25.942Z,209.05
2018-11-03T02:54:00.528Z,194.82
2018-11-03T02:54:35.064Z,180.50
2018-11-03T02:55:09.601Z,216.08
2018-11-03T02:55:44.181Z,199.17
2018-11-03T02:56:18.861Z,182.47
2018-11-03T02:56:53.402Z,222.40
2018-11-03T02:57:27.984Z,270.57
2018-11-03T02:58:03.043Z,231.68
2018-11-03T02:58:38.161Z,165.47
2018-11-03T02:59:13.162Z,208.38
2018-11-03T02:59:47.943Z,199.20
2018-11-03T03:00:22.928Z,198.07
2018-11-03T03:00:57.621Z,199.40
2018-11-03T03:01:32.700Z,206.60
2018-11-03T03:02:07.721Z,155.48
2018-11-03T03:02:42.381Z,186.40
2018-11-03T03:03:17.264Z,235.35
2018-11-03T03:03:52.001Z,200.78
2018-11-03T03:04:26.787Z,173.13
2018-11-03T03:05:01.242Z,158.00
2018-11-03T03:05:36.221Z,185.57
2018-11-03T03:06:10.841Z,199.50
2018-11-03T03:06:45.601Z,247.25
2018-11-03T03:07:20.660Z,197.47
2018-11-03T03:07:55.411Z,171.50
2018-11-03T03:08:30.284Z,197.95
2018-11-03T03:09:05.301Z,181.52
2018-11-03T03:09:39.881Z,245.17
2018-11-03T03:10:14.944Z,255.15
2018-11-03T03:10:49.981Z,269.62
2018-11-03T03:11:24.561Z,277.60
2018-11-03T03:11:59.322Z,323.93
2018-11-03T03:12:34.249Z,281.75
2018-11-03T03:13:09.361Z,349.40
2018-11-03T03:13:44.220Z,354.80
2018-11-03T03:14:18.801Z,243.73
2018-11-03T03:14:53.400Z,256.55
2018-11-03T03:15:28.840Z,248.28
2018-11-03T03:16:03.741Z,206.80
2018-11-03T03:16:38.481Z,162.43
2018-11-03T03:17:13.361Z,173.15
2018-11-03T03:17:48.221Z,145.50
2018-11-03T03:18:22.942Z,127.60
2018-11-03T03:18:57.861Z,197.22
2018-11-03T03:19:32.640Z,158.87
2018-11-03T03:20:09.041Z,177.55
2018-11-03T03:20:43.701Z,171.65
2018-11-03T03:21:18.781Z,182.12
2018-11-03T03:21:53.663Z,175.47
2018-11-03T03:22:28.700Z,159.00
2018-11-03T03:23:03.421Z,159.90
2018-11-03T03:23:38.061Z,168.87
2018-11-03T03:24:12.801Z,197.50
2018-11-03T03:24:47.401Z,160.97
2018-11-03T03:25:21.941Z,199.85
2018-11-03T03:25:56.641Z,176.72
2018-11-03T03:26:31.204Z,211.55
2018-11-03T03:27:06.120Z,251.62
2018-11-03T03:27:40.874Z,228.70
2018-11-03T03:28:15.643Z,246.95
2018-11-03T03:28:50.476Z,199.25
2018-11-03T03:29:25.252Z,143.07
2018-11-03T03:29:59.921Z,134.78
2018-11-03T03:30:34.521Z,160.45
2018-11-03T03:31:09.169Z,192.28
2018-11-03T03:31:50.641Z,212.50
2018-11-03T03:32:25.341Z,176.82
2018-11-03T03:32:59.961Z,186.18
2018-11-03T03:33:34.900Z,192.20
2018-11-03T03:34:09.761Z,211.52
2018-11-03T03:34:44.281Z,202.05
2018-11-03T03:35:19.081Z,202.97
2018-11-03T03:35:53.741Z,181.67
2018-11-03T03:36:28.381Z,198.28
2018-11-03T03:37:03.161Z,125.87
2018-11-03T03:37:38.001Z,127.17
2018-11-03T03:38:12.725Z,184.95
2018-11-03T03:38:47.361Z,202.25
2018-11-03T03:39:21.941Z,267.90
2018-11-03T03:39:56.831Z,314.25
2018-11-03T03:40:31.661Z,368.42
2018-11-03T03:41:06.521Z,311.68
2018-11-03T03:41:41.449Z,260.35
2018-11-03T03:42:16.281Z,301.88
2018-11-03T03:42:50.912Z,327.15
2018-11-03T03:43:25.661Z,299.05
2018-11-03T03:44:00.189Z,295.42
2018-11-03T03:44:34.761Z,244.80
2018-11-03T03:45:10.181Z,198.17
2018-11-03T03:45:44.760Z,210.75
2018-11-03T03:46:19.520Z,289.12
2018-11-03T03:46:54.161Z,194.67
2018-11-03T03:47:28.920Z,186.15
2018-11-03T03:48:03.641Z,206.72
2018-11-03T03:48:38.340Z,219.20
2018-11-03T03:49:13.481Z,186.03
2018-11-03T03:49:48.221Z,145.85
2018-11-03T03:50:23.130Z,286.35
2018-11-03T03:50:57.741Z,348.57
2018-11-03T03:51:32.464Z,259.07
2018-11-03T03:52:07.021Z,280.02
2018-11-03T03:52:41.752Z,189.00
2018-11-03T03:53:16.411Z,167.35
2018-11-03T03:53:51.021Z,107.15
2018-11-03T03:54:25.709Z,175.55
2018-11-03T03:55:00.265Z,127.40
2018-11-03T03:55:34.920Z,268.12
2018-11-03T03:56:09.463Z,261.80
2018-11-03T03:56:44.003Z,200.65
2018-11-03T03:57:19.001Z,202.80
2018-11-03T03:57:53.681Z,200.80
2018-11-03T03:58:28.200Z,174.45
2018-11-03T03:59:03.409Z,141.77
2018-11-03T03:59:38.021Z,140.95
2018-11-03T04:00:13.161Z,107.50
2018-11-03T04:00:47.761Z,142.87
2018-11-03T04:01:22.248Z,125.70
2018-11-03T04:01:56.700Z,136.90
2018-11-03T04:02:31.339Z,152.27
2018-11-03T04:03:06.109Z,201.15
2018-11-03T04:03:40.801Z,190.85
2018-11-03T04:04:15.421Z,156.97
2018-11-03T04:04:49.941Z,149.55
2018-11-03T04:05:24.640Z,173.82
2018-11-03T04:05:59.181Z,198.35
2018-11-03T04:06:33.865Z,249.90
2018-11-03T04:07:08.200Z,293.40
2018-11-03T04:07:42.882Z,198.28
2018-11-03T04:08:17.522Z,274.35
2018-11-03T04:08:52.182Z,222.60
2018-11-03T04:09:26.762Z,203.20
2018-11-03T04:10:01.443Z,231.78
2018-11-03T04:10:35.981Z,206.15
2018-11-03T04:11:10.662Z,193.75
2018-11-03T04:11:45.181Z,238.43
2018-11-03T04:12:20.021Z,243.07
2018-11-03T04:12:54.421Z,248.57
2018-11-03T04:13:29.205Z,244.60
2018-11-03T04:14:03.849Z,241.30
2018-11-03T04:14:38.441Z,225.10
2018-11-03T04:15:13.001Z,240.32
2018-11-03T04:15:47.641Z,236.85
2018-11-03T04:16:22.210Z,204.53
2018-11-03T04:16:56.782Z,212.02
2018-11-03T04:17:31.441Z,224.25
2018-11-03T04:18:06.135Z,215.92
2018-11-03T04:18:40.801Z,249.67
2018-11-03T04:19:15.421Z,223.30
2018-11-03T04:19:49.841Z,292.52
2018-11-03T04:20:24.541Z,348.65
2018-11-03T04:20:59.021Z,246.25
2018-11-03T04:21:33.521Z,294.23
2018-11-03T04:22:08.161Z,346.50
2018-11-03T04:22:42.703Z,258.95
2018-11-03T04:23:17.281Z,235.17
2018-11-03T04:23:51.929Z,260.23
2018-11-03T04:24:26.622Z,224.55
2018-11-03T04:25:01.148Z,197.32
2018-11-03T04:25:35.881Z,196.43
2018-11-03T04:26:10.512Z,222.07
2018-11-03T04:26:45.181Z,199.23
2018-11-03T04:27:19.821Z,186.25
2018-11-03T04:27:54.522Z,222.78
2018-11-03T04:29:32.481Z,209.10
2018-11-03T04:30:09.461Z,192.35
2018-11-03T04:30:44.161Z,192.20
2018-11-03T04:31:18.801Z,201.47
2018-11-03T04:31:53.421Z,221.43
2018-11-03T04:32:27.981Z,212.68
2018-11-03T04:33:02.601Z,216.50
2018-11-03T04:33:37.062Z,214.93
2018-11-03T04:34:11.741Z,281.77
2018-11-03T04:34:46.441Z,231.55
2018-11-03T04:35:21.088Z,205.72
2018-11-03T04:35:55.659Z,204.43
2018-11-03T04:36:30.322Z,203.60
2018-11-03T04:37:04.810Z,350.62
2018-11-03T04:37:39.717Z,327.93
2018-11-03T04:38:14.432Z,312.90
2018-11-03T04:38:49.205Z,242.25
2018-11-03T04:39:23.872Z,228.12
2018-11-03T04:39:58.572Z,248.47
2018-11-03T04:40:33.291Z,340.92
2018-11-03T04:41:08.012Z,302.13
2018-11-03T04:41:42.696Z,309.32
2018-11-03T04:42:17.432Z,472.50
2018-11-03T04:42:52.172Z,294.93
2018-11-03T04:43:26.872Z,320.60
2018-11-03T04:44:01.521Z,374.73
2018-11-03T04:44:36.192Z,280.73
2018-11-03T04:45:11.714Z,253.92
2018-11-03T04:45:46.312Z,261.00
2018-11-03T04:46:20.972Z,300.95
2018-11-03T04:46:55.532Z,260.05
2018-11-03T04:47:30.272Z,233.90
2018-11-03T04:48:04.813Z,393.07
2018-11-03T04:48:39.493Z,291.35
2018-11-03T04:49:14.132Z,276.85
2018-11-03T04:49:48.812Z,265.98
2018-11-03T04:50:23.514Z,199.10
2018-11-03T04:50:58.252Z,217.07
2018-11-03T04:51:34.412Z,247.10
2018-11-03T04:52:09.280Z,238.92
2018-11-03T04:52:43.952Z,254.43
2018-11-03T04:53:18.652Z,285.43
2018-11-03T04:53:53.452Z,263.35
2018-11-03T04:54:28.058Z,310.10
2018-11-03T04:55:02.921Z,467.55
2018-11-03T04:55:37.852Z,301.02
2018-11-03T04:56:12.747Z,346.82
2018-11-03T04:56:47.462Z,357.00
2018-11-03T04:57:22.152Z,278.70
2018-11-03T04:57:56.792Z,454.77
2018-11-03T04:58:31.707Z,296.25
2018-11-03T04:59:06.673Z,283.77
2018-11-03T04:59:41.451Z,269.40
2018-11-03T05:00:16.160Z,254.18
2018-11-03T05:00:50.952Z,265.12
2018-11-03T05:01:25.672Z,285.57
2018-11-03T05:02:00.453Z,323.68
2018-11-03T05:02:35.072Z,518.10
2018-11-03T05:03:09.872Z,510.40
2018-11-03T05:03:44.672Z,362.00
2018-11-03T05:04:19.432Z,390.95
2018-11-03T05:04:54.173Z,308.43
2018-11-03T05:05:29.149Z,304.52
2018-11-03T05:06:03.752Z,315.62
2018-11-03T05:06:38.572Z,427.52
2018-11-03T05:07:13.452Z,459.83
2018-11-03T05:07:48.072Z,227.30
2018-11-03T05:08:23.091Z,328.00
2018-11-03T05:08:58.092Z,329.48
2018-11-03T05:09:33.022Z,317.10
2018-11-03T05:10:08.470Z,309.73
2018-11-03T05:10:43.032Z,356.68
2018-11-03T05:11:20.892Z,357.80
2018-11-03T05:11:55.760Z,667.63
2018-11-03T05:12:30.812Z,834.67
2018-11-03T05:13:05.533Z,682.45
2018-11-03T05:13:40.420Z,473.05
2018-11-03T05:14:15.112Z,225.68
2018-11-03T05:14:49.772Z,232.20
2018-11-03T05:16:27.672Z,307.70
2018-11-03T05:17:02.452Z,240.70
2018-11-03T05:17:37.372Z,410.60
2018-11-03T05:18:12.092Z,399.07
2018-11-03T05:18:46.671Z,337.48
2018-11-03T05:19:21.373Z,215.03
2018-11-03T05:19:56.052Z,253.47
2018-11-03T05:20:30.713Z,279.77
2018-11-03T05:21:05.514Z,310.08
2018-11-03T05:21:40.352Z,612.52
2018-11-03T05:22:14.971Z,444.15
2018-11-03T05:22:49.691Z,627.23
2018-11-03T05:23:24.431Z,332.18
2018-11-03T05:23:59.132Z,266.50
2018-11-03T05:24:34.013Z,238.47
2018-11-03T05:25:08.902Z,275.85
2018-11-03T05:25:43.636Z,316.45
2018-11-03T05:26:18.455Z,294.25
2018-11-03T05:26:53.252Z,349.30
2018-11-03T05:27:27.992Z,267.45
2018-11-03T05:28:02.673Z,267.10
2018-11-03T05:28:37.374Z,277.60
2018-11-03T05:29:12.132Z,249.15
2018-11-03T05:29:46.760Z,250.97
2018-11-03T05:30:21.488Z,254.47
2018-11-03T05:30:56.137Z,309.83
2018-11-03T05:31:30.812Z,267.05
2018-11-03T05:32:05.612Z,242.05
2018-11-03T05:32:40.209Z,250.72
2018-11-03T05:33:14.896Z,238.90
2018-11-03T05:33:49.612Z,242.85
2018-11-03T05:34:24.192Z,234.27
2018-11-03T05:34:58.840Z,219.22
2018-11-03T05:35:33.432Z,247.07
2018-11-03T05:36:08.092Z,244.57
2018-11-03T05:36:48.532Z,237.42
2018-11-03T05:37:23.731Z,230.62
2018-11-03T05:37:58.471Z,232.10
2018-11-03T05:38:33.112Z,251.20
2018-11-03T05:39:10.733Z,248.05
2018-11-03T05:39:45.651Z,272.58
2018-11-03T05:40:20.292Z,297.72
2018-11-03T05:40:55.112Z,246.47
2018-11-03T05:41:29.791Z,275.38
2018-11-03T05:42:04.532Z,270.05
2018-11-03T05:42:39.540Z,284.30
2018-11-03T05:43:14.231Z,238.35
2018-11-03T05:43:48.852Z,230.75
2018-11-03T05:44:23.643Z,248.32
2018-11-03T05:44:58.435Z,245.22
2018-11-03T05:45:33.353Z,239.75
2018-11-03T05:46:08.052Z,257.18
2018-11-03T05:46:43.003Z,230.75
2018-11-03T05:47:17.632Z,205.57
2018-11-03T05:47:52.272Z,232.70
2018-11-03T05:48:26.960Z,231.00
2018-11-03T05:49:01.860Z,239.95
2018-11-03T05:49:36.513Z,252.03
2018-11-03T05:50:11.872Z,212.48
2018-11-03T05:50:46.561Z,225.65
2018-11-03T05:51:21.432Z,218.95
2018-11-03T05:51:56.160Z,210.02
2018-11-03T05:52:30.816Z,209.43
2018-11-03T05:53:05.512Z,204.72
2018-11-03T05:53:40.332Z,196.37
2018-11-03T05:54:15.032Z,197.28
2018-11-03T05:54:49.832Z,200.55
2018-11-03T05:55:24.592Z,203.70
2018-11-03T05:55:59.342Z,199.07
2018-11-03T05:56:34.061Z,180.40
2018-11-03T05:57:09.035Z,203.18
2018-11-03T05:57:43.683Z,190.05
2018-11-03T05:58:18.432Z,181.85
2018-11-03T05:58:53.371Z,179.07
2018-11-03T05:59:27.952Z,210.75
2018-11-03T06:00:02.574Z,204.15
2018-11-03T06:00:37.314Z,206.87
2018-11-03T06:01:12.112Z,213.95
2018-11-03T06:01:46.827Z,223.62
2018-11-03T06:02:21.532Z,221.53
2018-11-03T06:02:56.972Z,237.20
2018-11-03T06:03:31.932Z,210.55
2018-11-03T06:04:06.775Z,173.02
2018-11-03T06:04:41.412Z,205.95
2018-11-03T06:05:16.292Z,204.10
2018-11-03T06:05:51.192Z,202.38
2018-11-03T06:06:26.112Z,196.25
2018-11-03T06:07:01.154Z,191.32
2018-11-03T06:07:35.812Z,161.05
2018-11-03T06:08:10.520Z,201.22
2018-11-03T06:08:45.403Z,177.32
2018-11-03T06:09:20.160Z,170.87
2018-11-03T06:09:54.762Z,169.22
2018-11-03T06:10:29.340Z,181.32
2018-11-03T06:11:03.941Z,211.32
2018-11-03T06:11:38.581Z,192.77
2018-11-03T06:12:13.140Z,207.05
2018-11-03T06:12:47.821Z,210.02
2018-11-03T06:13:22.442Z,217.95
2018-11-03T06:13:57.121Z,203.50
2018-11-03T06:14:31.781Z,192.72
2018-11-03T06:15:06.482Z,148.62
2018-11-03T06:15:41.239Z,178.72
2018-11-03T06:16:15.946Z,194.52
2018-11-03T06:16:50.561Z,197.47
2018-11-03T06:17:25.223Z,169.90
2018-11-03T06:17:59.923Z,192.92
2018-11-03T06:18:34.441Z,173.62
2018-11-03T06:19:09.142Z,162.77
2018-11-03T06:19:43.560Z,207.22
2018-11-03T06:20:18.380Z,177.43
2018-11-03T06:20:53.040Z,153.20
2018-11-03T06:21:27.762Z,161.03
2018-11-03T06:22:02.361Z,169.28
2018-11-03T06:22:36.969Z,189.87
2018-11-03T06:23:11.597Z,163.03
2018-11-03T06:23:46.261Z,211.18
2018-11-03T06:24:20.861Z,221.50
2018-11-03T06:24:55.661Z,186.82
2018-11-03T06:25:30.440Z,182.20
2018-11-03T06:26:05.040Z,188.75
2018-11-03T06:26:40.003Z,193.90
2018-11-03T06:27:14.569Z,265.50
2018-11-03T06:27:49.057Z,222.80
2018-11-03T06:28:23.702Z,164.93
2018-11-03T06:28:58.241Z,196.75
2018-11-03T06:29:32.780Z,170.17
2018-11-03T06:30:09.103Z,164.40
2018-11-03T06:30:43.740Z,145.95
2018-11-03T06:31:18.681Z,144.50
2018-11-03T06:31:53.400Z,179.45
2018-11-03T06:32:27.988Z,143.95
2018-11-03T06:33:02.680Z,150.68
2018-11-03T06:33:37.241Z,161.43
2018-11-03T06:34:11.949Z,163.95
2018-11-03T06:34:46.543Z,149.40
2018-11-03T06:35:21.309Z,149.07
2018-11-03T06:35:55.941Z,147.17
2018-11-03T06:36:30.628Z,164.28
2018-11-03T06:37:05.464Z,156.15
2018-11-03T06:37:40.080Z,152.75
2018-11-03T06:38:14.702Z,148.55
2018-11-03T06:38:49.360Z,147.28
2018-11-03T06:39:23.880Z,126.20
2018-11-03T06:39:58.541Z,131.72
2018-11-03T06:40:33.180Z,146.00
2018-11-03T06:41:07.783Z,146.93
2018-11-03T06:41:42.420Z,133.45
2018-11-03T06:42:17.185Z,134.32
2018-11-03T06:42:51.880Z,133.35
2018-11-03T06:43:26.457Z,129.38
2018-11-03T06:44:01.260Z,158.47
2018-11-03T06:44:35.921Z,138.88
2018-11-03T06:45:11.020Z,123.67
2018-11-03T06:45:45.561Z,140.82
2018-11-03T06:46:20.663Z,152.40
2018-11-03T06:46:55.809Z,144.43
2018-11-03T06:47:30.710Z,132.80
2018-11-03T06:48:05.903Z,144.70
2018-11-03T06:48:40.640Z,135.95
2018-11-03T06:49:20.402Z,123.78
2018-11-03T06:49:55.598Z,147.32
2018-11-03T06:50:30.520Z,128.72
2018-11-03T06:51:05.281Z,129.07
2018-11-03T06:51:39.868Z,152.40
2018-11-03T06:52:14.583Z,168.68
2018-11-03T06:52:49.200Z,147.05
2018-11-03T06:53:23.742Z,140.32
2018-11-03T06:53:58.222Z,141.90
2018-11-03T06:54:32.941Z,149.10
2018-11-03T06:55:08.220Z,130.15
2018-11-03T06:55:42.766Z,134.18
2018-11-03T06:56:17.400Z,141.97
2018-11-03T06:56:51.968Z,130.97
2018-11-03T06:57:26.742Z,139.47
2018-11-03T06:58:01.524Z,145.85
2018-11-03T06:58:36.216Z,136.75
2018-11-03T06:59:10.802Z,126.20
2018-11-03T06:59:45.384Z,141.75
2018-11-03T07:00:20.001Z,156.05
2018-11-03T07:00:54.601Z,151.37
2018-11-03T07:01:29.326Z,130.05
2018-11-03T07:02:04.363Z,130.67
2018-11-03T07:02:39.021Z,136.57
2018-11-03T07:03:14.108Z,141.80
2018-11-03T07:03:49.160Z,161.00
2018-11-03T07:04:24.248Z,121.77
2018-11-03T07:04:58.982Z,151.20
2018-11-03T07:05:33.641Z,115.08
2018-11-03T07:06:08.391Z,156.28
2018-11-03T07:06:43.329Z,108.25
2018-11-03T07:07:18.222Z,123.40
2018-11-03T07:07:53.101Z,144.53
2018-11-03T07:08:28.103Z,107.58
2018-11-03T07:09:02.966Z,121.92
2018-11-03T07:09:37.602Z,107.85
2018-11-03T07:10:12.542Z,127.78
2018-11-03T07:10:47.200Z,112.20
2018-11-03T07:11:21.846Z,128.10
2018-11-03T07:11:56.530Z,112.97
2018-11-03T07:12:31.540Z,101.35
2018-11-03T07:13:06.498Z,113.83
2018-11-03T07:13:41.361Z,113.80
2018-11-03T07:14:16.064Z,118.60
2018-11-03T07:14:50.942Z,105.05
2018-11-03T07:15:25.566Z,110.70
2018-11-03T07:16:07.192Z,97.50
2018-11-03T07:16:42.061Z,112.50
2018-11-03T07:17:17.390Z,115.77
2018-11-03T07:17:52.368Z,119.85
2018-11-03T07:18:27.328Z,114.30
2018-11-03T07:19:02.328Z,120.77
2018-11-03T07:19:37.182Z,122.80
2018-11-03T07:20:13.349Z,119.40
2018-11-03T07:20:48.028Z,126.55